Telluride, CO

7:41 PM MST on February 07, 2016 (GMT -0700)
Telluride Regional

Weather History for KTEX - October, 2012

Change the Weather History Date:

Tuesday, October 23, 2012

  Actual Average Record
Temperature  
Mean Temperature 50 °F -  
Max Temperature 55 °F 45 °F 62 °F (2011)
Min Temperature 46 °F 29 °F 17 °F (2004)
Degree Days  
Heating Degree Days 14    
Moisture  
Dew Point 23 °F    
Average Humidity 35    
Maximum Humidity 50    
Minimum Humidity 18    
Precipitation  
Precipitation 0.00 in - - ()
Sea Level Pressure  
Sea Level Pressure 30.07 in    
Wind  
Wind Speed 11 mph (SSE)    
Max Wind Speed 22 mph    
Max Gust Speed 37 mph    
Visibility 10 miles    
Events Rain    
Averages and records for this station are not official NWS values.
T = Trace of Precipitation, MM = Missing Value Source: NWS Daily Summary

Daily Weather History Graph

Daily Weather History Graph

Search for Another Location

Airport or City:

Trip Planner

Search our weather history database for the weather conditions in past years. The results will help you decide how hot, cold, wet, or windy it might be!

Date:

Astronomy

Oct. 23, 2012 Rise Set
Actual Time 7:28 AM MDT 6:22 PM MDT
Civil Twilight 7:01 AM MDT 6:49 PM MDT
Nautical Twilight 6:30 AM MDT 7:20 PM MDT
Astronomical Twilight 6:00 AM MDT 7:50 PM MDT
Moon 3:02 PM MDT (10/23) 1:29 AM MDT (10/23)
Length of Visible Light 11h 47m
Length of Day
10h 54m
Waxing Gibbous, 67% of the Moon is Illuminated
Oct 23
Waxing Gibbous
Oct 29
Full
Nov 6
Last Quarter
Nov 13
New
Nov 20
First Quarter

Hourly Weather History & Observations

Time (MDT) Temp. Windchill Dew Point Humidity Pressure Visibility Wind Dir Wind Speed Gust Speed Precip Events Conditions
12:15 AM 48.2 °F - 26.6 °F 43% 30.08 in 10.0 mi SSE 16.1 mph 26.5 mph N/A   Clear
12:35 AM 48.2 °F - 26.6 °F 43% 30.09 in 10.0 mi SSE 12.7 mph 25.3 mph N/A   Scattered Clouds
12:55 AM 48.2 °F - 28.4 °F 46% 30.09 in 10.0 mi SE 16.1 mph 26.5 mph N/A   Scattered Clouds
1:15 AM 48.2 °F - 28.4 °F 46% 30.10 in 10.0 mi SE 13.8 mph 20.7 mph N/A   Mostly Cloudy
1:35 AM 48.2 °F - 28.4 °F 46% 30.10 in 10.0 mi ESE 11.5 mph - N/A   Mostly Cloudy
1:55 AM 48.2 °F - 28.4 °F 46% 30.10 in 10.0 mi East 13.8 mph - N/A   Overcast
2:15 AM 48.2 °F - 26.6 °F 43% 30.10 in 10.0 mi ESE 15.0 mph 20.7 mph N/A   Overcast
2:35 AM 48.2 °F - 26.6 °F 43% 30.09 in 10.0 mi ESE 9.2 mph 16.1 mph N/A   Overcast
2:55 AM 50.0 °F - 26.6 °F 40% 30.09 in 10.0 mi SE 10.4 mph 19.6 mph N/A   Overcast
3:15 AM 48.2 °F - 26.6 °F 43% 30.09 in 10.0 mi SE 13.8 mph 21.9 mph N/A   Overcast
3:35 AM 48.2 °F - 26.6 °F 43% 30.09 in 10.0 mi SE 6.9 mph 18.4 mph N/A   Overcast
3:55 AM 48.2 °F - 26.6 °F 43% 30.08 in 10.0 mi South 4.6 mph - N/A   Overcast
4:15 AM 48.2 °F - 26.6 °F 43% 30.08 in 10.0 mi SSE 6.9 mph - N/A   Overcast
4:35 AM 48.2 °F - 26.6 °F 43% 30.07 in 10.0 mi SSE 16.1 mph 24.2 mph N/A   Overcast
4:55 AM 46.4 °F 42.4 °F 26.6 °F 46% 30.08 in 10.0 mi South 8.1 mph - N/A   Overcast
5:35 AM 48.2 °F - 26.6 °F 43% 30.08 in 10.0 mi SW 18.4 mph 31.1 mph N/A   Overcast
6:15 AM 46.4 °F 42.4 °F 23.0 °F 40% 30.08 in 10.0 mi SSE 8.1 mph 20.7 mph N/A   Overcast
6:35 AM 46.4 °F 43.5 °F 24.8 °F 43% 30.08 in 10.0 mi South 5.8 mph 16.1 mph N/A   Overcast
6:55 AM 48.2 °F - 26.6 °F 43% 30.08 in 10.0 mi South 4.6 mph 24.2 mph N/A   Overcast
7:15 AM 48.2 °F - 30.2 °F 50% 30.07 in 10.0 mi SW 21.9 mph 34.5 mph N/A Rain Light Rain
7:35 AM 46.4 °F 43.5 °F 28.4 °F 50% 30.08 in 10.0 mi SE 5.8 mph - N/A   Overcast
7:55 AM 48.2 °F - 28.4 °F 46% 30.09 in 10.0 mi South 9.2 mph 29.9 mph N/A   Overcast
8:15 AM 46.4 °F 42.9 °F 26.6 °F 46% 30.11 in 10.0 mi West 6.9 mph 19.6 mph N/A   Overcast
8:35 AM 46.4 °F 41.1 °F 28.4 °F 50% 30.11 in 10.0 mi West 11.5 mph 23.0 mph N/A   Mostly Cloudy
8:55 AM 46.4 °F - 26.6 °F 46% 30.12 in 10.0 mi Calm Calm - N/A   Mostly Cloudy
9:15 AM 46.4 °F 44.3 °F 26.6 °F 46% 30.11 in 10.0 mi East 4.6 mph - N/A   Mostly Cloudy
9:55 AM 46.4 °F - 24.8 °F 43% 30.12 in 10.0 mi Calm Calm - N/A   Clear
10:15 AM 50.0 °F - 24.8 °F 37% 30.10 in 10.0 mi SSE 10.4 mph - N/A   Clear
10:35 AM 51.8 °F - 23.0 °F 33% 30.10 in 10.0 mi SE 6.9 mph - N/A   Clear
10:55 AM 51.8 °F - 23.0 °F 33% 30.10 in 10.0 mi SSE 5.8 mph - N/A   Clear
11:15 AM 51.8 °F - 21.2 °F 30% 30.08 in 10.0 mi South 18.4 mph 21.9 mph N/A   Clear
11:35 AM 51.8 °F - 19.4 °F 28% 30.08 in 10.0 mi SSE 8.1 mph 26.5 mph N/A   Clear
11:55 AM 53.6 °F - 17.6 °F 24% 30.08 in 7.0 mi South 8.1 mph 31.1 mph N/A   Clear
12:15 PM 53.6 °F - 15.8 °F 22% 30.08 in 10.0 mi SSE 15.0 mph 26.5 mph N/A   Clear
12:35 PM 53.6 °F - 15.8 °F 22% 30.08 in 10.0 mi SSE 11.5 mph 28.8 mph N/A   Clear
12:55 PM 55.4 °F - 14.0 °F 20% 30.08 in 10.0 mi South 5.8 mph 19.6 mph N/A   Clear
1:15 PM 55.4 °F - 12.2 °F 18% 30.07 in 10.0 mi West 6.9 mph 19.6 mph N/A   Clear
1:35 PM 55.4 °F - 15.8 °F 21% 30.05 in 10.0 mi SSE 9.2 mph 20.7 mph N/A   Clear
1:55 PM 55.4 °F - 17.6 °F 23% 30.04 in 10.0 mi SE 21.9 mph 32.2 mph N/A   Clear
2:15 PM 55.4 °F - 15.8 °F 21% 30.04 in 10.0 mi South 15.0 mph 32.2 mph N/A   Clear
2:35 PM 55.4 °F - 17.6 °F 23% 30.05 in 10.0 mi South 5.8 mph 19.6 mph N/A   Clear
2:55 PM 55.4 °F - 15.8 °F 21% 30.04 in 10.0 mi SSW 15.0 mph 25.3 mph N/A   Clear
3:15 PM 53.6 °F - 19.4 °F 26% 30.04 in 10.0 mi South 16.1 mph 26.5 mph N/A   Clear
3:35 PM 55.4 °F - 17.6 °F 23% 30.03 in 10.0 mi South 15.0 mph 24.2 mph N/A   Clear
3:55 PM 55.4 °F - 17.6 °F 23% 30.04 in 10.0 mi South 17.3 mph 36.8 mph N/A   Clear
4:15 PM 55.4 °F - 19.4 °F 25% 30.04 in 10.0 mi SE 18.4 mph 36.8 mph N/A   Clear
4:35 PM 53.6 °F - 17.6 °F 24% 30.03 in 10.0 mi SSE 11.5 mph 31.1 mph N/A   Clear
4:55 PM 53.6 °F - 17.6 °F 24% 30.03 in 10.0 mi South 13.8 mph 28.8 mph N/A   Clear
5:15 PM 53.6 °F - 19.4 °F 26% 30.03 in 10.0 mi East 5.8 mph 23.0 mph N/A   Clear
5:35 PM 53.6 °F - 17.6 °F 24% 30.04 in 10.0 mi South 11.5 mph 20.7 mph N/A   Clear
5:55 PM 53.6 °F - 19.4 °F 26% 30.04 in 10.0 mi SW 9.2 mph - N/A   Scattered Clouds
6:15 PM 53.6 °F - 19.4 °F 26% 30.04 in 10.0 mi SSE 5.8 mph 23.0 mph N/A   Scattered Clouds
6:35 PM 51.8 °F - 21.2 °F 30% 30.05 in 10.0 mi Calm Calm - N/A   Clear
6:55 PM 51.8 °F - 21.2 °F 30% 30.05 in 10.0 mi SE 9.2 mph 17.3 mph N/A   Clear
7:15 PM 51.8 °F - 23.0 °F 33% 30.05 in 10.0 mi ESE 9.2 mph - N/A   Clear
7:35 PM 51.8 °F - 23.0 °F 33% 30.06 in 10.0 mi SE 10.4 mph 24.2 mph N/A   Clear
7:55 PM 51.8 °F - 23.0 °F 33% 30.05 in 10.0 mi SE 10.4 mph 26.5 mph N/A   Clear
8:15 PM 50.0 °F - 23.0 °F 35% 30.06 in 10.0 mi SE 8.1 mph 18.4 mph N/A   Clear
8:35 PM 50.0 °F - 23.0 °F 35% 30.06 in 10.0 mi Calm Calm - N/A   Clear
8:55 PM 50.0 °F - 24.8 °F 37% 30.07 in 10.0 mi West 3.5 mph - N/A   Clear
9:15 PM 50.0 °F - 24.8 °F 37% 30.06 in 10.0 mi Calm Calm - N/A   Clear
9:35 PM 50.0 °F - 24.8 °F 37% 30.06 in 10.0 mi WNW 4.6 mph - N/A   Clear
9:55 PM 50.0 °F - 24.8 °F 37% 30.06 in 10.0 mi South 8.1 mph - N/A   Clear
10:35 PM 50.0 °F - 26.6 °F 40% 30.06 in 10.0 mi SSW 13.8 mph 24.2 mph N/A   Scattered Clouds
10:55 PM 50.0 °F - 26.6 °F 40% 30.05 in 10.0 mi SW 9.2 mph 17.3 mph N/A   Clear
11:15 PM 50.0 °F - 26.6 °F 40% 30.05 in 10.0 mi SSW 10.4 mph - N/A   Clear
11:35 PM 50.0 °F - 26.6 °F 40% 30.06 in 10.0 mi SW 4.6 mph 20.7 mph N/A   Clear